createdAt,value
2017-10-22T00:01:15.126Z,74.91
2017-10-22T00:03:42.705Z,75.25
2017-10-22T00:06:10.481Z,76.29
2017-10-22T00:08:39.062Z,75.87
2017-10-22T00:11:06.720Z,75.59
2017-10-22T00:13:34.276Z,75.34
2017-10-22T00:16:02.606Z,74.75
2017-10-22T00:18:30.198Z,74.40
2017-10-22T00:20:57.971Z,74.24
2017-10-22T00:23:25.546Z,73.86
2017-10-22T00:25:53.099Z,74.19
2017-10-22T00:28:20.628Z,74.32
2017-10-22T00:30:48.218Z,74.37
2017-10-22T00:33:15.733Z,74.57
2017-10-22T00:35:43.337Z,74.66
2017-10-22T00:38:13.902Z,73.97
2017-10-22T00:40:42.191Z,74.40
2017-10-22T00:43:10.481Z,74.63
2017-10-22T00:45:38.782Z,74.53
2017-10-22T00:48:07.841Z,74.08
2017-10-22T00:50:35.516Z,73.89
2017-10-22T00:53:04.691Z,73.21
2017-10-22T00:55:33.186Z,72.64
2017-10-22T00:58:00.795Z,72.58
2017-10-22T01:00:29.103Z,73.24
2017-10-22T01:02:56.777Z,72.82
2017-10-22T01:05:25.276Z,72.97
2017-10-22T01:07:53.139Z,73.33
2017-10-22T01:10:20.732Z,72.63
2017-10-22T01:12:48.367Z,72.41
2017-10-22T01:15:16.036Z,72.62
2017-10-22T01:17:43.565Z,72.35
2017-10-22T01:20:11.102Z,72.77
2017-10-22T01:22:38.698Z,72.88
2017-10-22T01:25:06.314Z,72.89
2017-10-22T01:27:33.911Z,72.78
2017-10-22T01:30:01.489Z,72.35
2017-10-22T01:32:29.135Z,72.15
2017-10-22T01:34:59.337Z,72.46
2017-10-22T01:37:28.106Z,72.48
2017-10-22T01:39:55.698Z,72.41
2017-10-22T01:42:23.310Z,72.80
2017-10-22T01:44:51.427Z,72.50
2017-10-22T01:47:18.989Z,72.33
2017-10-22T01:49:46.859Z,72.67
2017-10-22T01:52:14.589Z,72.23
2017-10-22T01:54:42.239Z,72.36
2017-10-22T01:57:09.941Z,72.99
2017-10-22T01:59:37.502Z,72.63
2017-10-22T02:02:05.056Z,73.34
2017-10-22T02:04:33.685Z,72.93
2017-10-22T02:07:01.286Z,72.35
2017-10-22T02:09:29.498Z,72.68
2017-10-22T02:11:57.089Z,73.00
2017-10-22T02:14:24.697Z,73.16
2017-10-22T02:16:52.336Z,72.74
2017-10-22T02:19:19.914Z,72.40
2017-10-22T02:21:47.489Z,72.61
2017-10-22T02:24:15.327Z,72.57
2017-10-22T02:26:42.906Z,71.70
2017-10-22T02:29:10.568Z,71.97
2017-10-22T02:31:38.179Z,72.31
2017-10-22T02:34:05.692Z,71.78
2017-10-22T02:36:33.253Z,71.90
2017-10-22T02:39:01.445Z,71.42
2017-10-22T02:41:30.375Z,72.06
2017-10-22T02:43:57.968Z,72.00
2017-10-22T02:46:25.530Z,71.84
2017-10-22T02:48:53.867Z,71.91
2017-10-22T02:51:21.504Z,71.69
2017-10-22T02:53:49.989Z,71.93
2017-10-22T02:56:18.977Z,71.79
2017-10-22T02:58:46.530Z,72.29
2017-10-22T03:01:14.065Z,72.72
2017-10-22T03:03:42.189Z,72.76
2017-10-22T03:06:09.943Z,72.49
2017-10-22T03:08:39.377Z,71.94
2017-10-22T03:11:07.074Z,71.93
2017-10-22T03:13:36.970Z,70.95
2017-10-22T03:16:06.468Z,70.81
2017-10-22T03:18:37.080Z,71.80
2017-10-22T03:21:04.803Z,71.80
2017-10-22T03:23:33.253Z,71.85
2017-10-22T03:26:02.041Z,71.92
2017-10-22T03:28:29.693Z,72.04
2017-10-22T03:30:57.851Z,72.60
2017-10-22T03:33:25.854Z,72.38
2017-10-22T03:35:53.465Z,72.02
2017-10-22T03:38:21.049Z,71.83
2017-10-22T03:40:49.138Z,71.37
2017-10-22T03:43:17.597Z,71.88
2017-10-22T03:45:45.905Z,71.70
2017-10-22T03:48:14.212Z,71.46
2017-10-22T03:50:42.609Z,71.18
2017-10-22T03:53:10.884Z,70.77
2017-10-22T03:55:38.385Z,70.12
2017-10-22T03:58:05.999Z,70.06
2017-10-22T04:00:33.543Z,70.42
2017-10-22T04:03:01.857Z,70.90
2017-10-22T04:05:29.396Z,70.72
2017-10-22T04:07:58.973Z,70.68
2017-10-22T04:10:26.606Z,70.74
2017-10-22T04:12:54.173Z,70.98
2017-10-22T04:15:22.292Z,70.94
2017-10-22T04:17:50.075Z,70.91
2017-10-22T04:20:18.065Z,70.96
2017-10-22T04:22:45.915Z,70.55
2017-10-22T04:25:13.484Z,70.42
2017-10-22T04:27:41.935Z,70.55
2017-10-22T04:30:09.524Z,70.68
2017-10-22T04:32:37.879Z,71.33
2017-10-22T04:35:06.225Z,71.41
2017-10-22T04:37:36.219Z,71.08
2017-10-22T04:40:03.852Z,70.92
2017-10-22T04:42:31.489Z,71.04
2017-10-22T04:44:59.073Z,70.79
2017-10-22T04:47:26.651Z,71.12
2017-10-22T04:49:54.162Z,71.04
2017-10-22T04:52:21.719Z,71.50
2017-10-22T04:54:49.278Z,72.08
2017-10-22T04:57:17.113Z,72.55
2017-10-22T04:59:44.711Z,72.47
2017-10-22T05:02:12.265Z,72.07
2017-10-22T05:04:40.627Z,71.72
2017-10-22T05:07:08.241Z,72.13
2017-10-22T05:09:36.798Z,72.66
2017-10-22T05:12:04.934Z,73.13
2017-10-22T05:14:32.707Z,73.85
2017-10-22T05:17:00.309Z,73.31
2017-10-22T05:19:27.850Z,74.11
2017-10-22T05:21:55.366Z,74.28
2017-10-22T05:24:23.926Z,74.65
2017-10-22T05:26:52.018Z,75.07
2017-10-22T05:29:21.484Z,75.28
2017-10-22T05:31:49.112Z,75.07
2017-10-22T05:34:16.632Z,75.05
2017-10-22T05:36:45.059Z,75.33
2017-10-22T05:39:13.539Z,76.69
2017-10-22T05:41:42.815Z,76.12
2017-10-22T05:44:10.293Z,75.00
2017-10-22T05:46:37.823Z,74.11
2017-10-22T05:49:05.289Z,73.93
2017-10-22T05:51:32.776Z,73.88
2017-10-22T05:54:00.287Z,73.85
2017-10-22T05:56:27.805Z,74.05
2017-10-22T05:58:55.336Z,73.52
2017-10-22T06:01:22.859Z,73.67
2017-10-22T06:03:50.482Z,73.39
2017-10-22T06:06:17.977Z,73.34
2017-10-22T06:08:45.548Z,72.74
2017-10-22T06:11:13.087Z,72.31
2017-10-22T06:13:40.628Z,72.01
2017-10-22T06:16:08.234Z,72.67
2017-10-22T06:18:35.738Z,71.92
2017-10-22T06:21:03.351Z,71.67
2017-10-22T06:23:30.854Z,72.09
2017-10-22T06:25:59.220Z,71.68
2017-10-22T06:28:26.771Z,70.84
2017-10-22T06:30:54.265Z,70.61
2017-10-22T06:33:21.961Z,70.65
2017-10-22T06:35:49.567Z,69.72
2017-10-22T06:38:19.387Z,69.72
2017-10-22T06:40:46.926Z,66.17
2017-10-22T06:43:14.427Z,56.32
2017-10-22T06:45:42.392Z,51.09
2017-10-22T06:48:10.044Z,48.53
2017-10-22T06:50:37.697Z,48.98
2017-10-22T06:53:06.666Z,45.23
2017-10-22T06:55:34.292Z,43.48
2017-10-22T06:58:02.573Z,40.25
2017-10-22T07:00:32.734Z,39.38
2017-10-22T07:03:00.586Z,40.36
2017-10-22T07:05:28.093Z,38.52
2017-10-22T07:07:55.799Z,39.54
2017-10-22T07:10:24.132Z,37.42
2017-10-22T07:12:52.778Z,36.24
2017-10-22T07:15:20.408Z,34.50
2017-10-22T07:17:47.945Z,37.13
2017-10-22T07:20:15.550Z,37.62
2017-10-22T07:22:43.160Z,40.48
2017-10-22T07:25:11.661Z,41.88
2017-10-22T07:27:40.434Z,39.14
2017-10-22T07:30:08.167Z,40.35
2017-10-22T07:32:36.407Z,39.48
2017-10-22T07:35:04.950Z,47.40
2017-10-22T07:37:33.728Z,48.06
2017-10-22T07:40:01.639Z,41.32
2017-10-22T07:42:29.237Z,35.93
2017-10-22T07:44:57.142Z,35.28
2017-10-22T07:47:29.216Z,35.02
2017-10-22T07:49:56.905Z,33.25
2017-10-22T07:52:26.964Z,33.16
2017-10-22T07:54:55.065Z,32.10
2017-10-22T07:57:23.474Z,30.59
2017-10-22T07:59:51.188Z,29.02
2017-10-22T08:02:18.980Z,31.35
2017-10-22T08:04:47.519Z,33.32
2017-10-22T08:07:15.170Z,33.63
2017-10-22T08:09:42.864Z,32.55
2017-10-22T08:12:10.602Z,31.97
2017-10-22T08:14:38.264Z,32.91
2017-10-22T08:17:06.117Z,33.20
2017-10-22T08:19:33.763Z,33.89
2017-10-22T08:22:02.140Z,34.14
2017-10-22T08:24:29.736Z,33.34
2017-10-22T08:26:57.369Z,33.32
2017-10-22T08:29:25.018Z,33.54
2017-10-22T08:31:52.898Z,35.50
2017-10-22T08:34:20.495Z,38.16
2017-10-22T08:36:48.048Z,41.69
2017-10-22T08:39:15.596Z,44.87
2017-10-22T08:41:43.428Z,46.35
2017-10-22T08:44:15.883Z,47.71
2017-10-22T08:46:43.723Z,48.40
2017-10-22T08:49:11.718Z,48.36
2017-10-22T08:51:39.396Z,49.45
2017-10-22T08:54:06.987Z,50.48
2017-10-22T08:56:34.550Z,48.97
2017-10-22T08:59:02.128Z,48.51
2017-10-22T09:01:31.297Z,48.62
2017-10-22T09:03:59.419Z,49.57
2017-10-22T09:06:26.939Z,48.64
2017-10-22T09:08:54.489Z,50.59
2017-10-22T09:11:22.114Z,48.07
2017-10-22T09:13:50.943Z,48.93
2017-10-22T09:16:18.587Z,49.06
2017-10-22T09:18:46.075Z,48.46
2017-10-22T09:21:13.680Z,48.65
2017-10-22T09:23:42.406Z,48.42
2017-10-22T09:26:11.605Z,48.60
2017-10-22T09:28:39.790Z,47.47
2017-10-22T09:31:07.314Z,47.00
2017-10-22T09:33:35.889Z,46.82
2017-10-22T09:36:03.764Z,45.19
2017-10-22T09:38:32.071Z,44.91
2017-10-22T09:40:59.648Z,46.59
2017-10-22T09:43:27.204Z,44.51
2017-10-22T09:45:55.603Z,44.04
2017-10-22T09:48:23.466Z,43.29
2017-10-22T09:50:51.779Z,43.32
2017-10-22T09:53:20.512Z,44.15
2017-10-22T09:55:49.141Z,44.28
2017-10-22T09:58:17.317Z,43.54
2017-10-22T10:00:45.814Z,43.26
2017-10-22T10:03:13.830Z,42.61
2017-10-22T10:05:41.709Z,42.27
2017-10-22T10:08:10.403Z,43.03
2017-10-22T10:10:39.805Z,40.80
2017-10-22T10:13:07.634Z,39.11
2017-10-22T10:15:35.732Z,36.19
2017-10-22T10:18:05.324Z,35.62
2017-10-22T10:20:35.024Z,35.72
2017-10-22T10:23:03.032Z,34.50
2017-10-22T10:25:31.945Z,32.06
2017-10-22T10:27:59.488Z,31.94
2017-10-22T10:30:27.686Z,32.13
2017-10-22T10:32:55.315Z,34.16
2017-10-22T10:35:22.911Z,31.19
2017-10-22T10:37:50.469Z,30.73
2017-10-22T10:40:18.418Z,33.72
2017-10-22T10:42:46.010Z,33.37
2017-10-22T10:45:13.751Z,33.94
2017-10-22T10:47:41.562Z,35.13
2017-10-22T10:50:11.169Z,37.91
2017-10-22T10:52:38.699Z,38.17
2017-10-22T10:55:06.337Z,39.46
2017-10-22T10:57:33.870Z,37.67
2017-10-22T11:00:04.043Z,32.20
2017-10-22T11:02:31.700Z,30.43
2017-10-22T11:05:00.060Z,28.51
2017-10-22T11:07:28.411Z,28.70
2017-10-22T11:09:57.772Z,28.22
2017-10-22T11:12:26.763Z,27.59
2017-10-22T11:14:54.389Z,29.55
2017-10-22T11:17:22.093Z,28.66
2017-10-22T11:19:50.145Z,27.40
2017-10-22T11:22:18.646Z,29.57
2017-10-22T11:24:46.208Z,29.80
2017-10-22T11:27:13.702Z,31.69
2017-10-22T11:29:42.208Z,29.31
2017-10-22T11:32:10.661Z,28.72
2017-10-22T11:34:38.157Z,28.93
2017-10-22T11:37:05.906Z,29.10
2017-10-22T11:39:33.441Z,28.49
2017-10-22T11:42:00.956Z,27.41
2017-10-22T11:44:29.723Z,26.99
2017-10-22T11:46:57.232Z,26.79
2017-10-22T11:49:24.929Z,28.67
2017-10-22T11:51:52.427Z,28.28
2017-10-22T11:54:20.027Z,24.58
2017-10-22T11:56:50.955Z,25.61
2017-10-22T11:59:18.605Z,27.67
2017-10-22T12:01:46.269Z,30.43
2017-10-22T12:04:13.884Z,32.31
2017-10-22T12:06:43.701Z,33.47
2017-10-22T12:09:11.355Z,34.87
2017-10-22T12:11:45.859Z,36.36
2017-10-22T12:14:13.496Z,34.87
2017-10-22T12:16:41.220Z,32.24
2017-10-22T12:19:08.886Z,33.12
2017-10-22T12:21:36.636Z,34.20
2017-10-22T12:24:04.154Z,35.57
2017-10-22T12:26:31.718Z,37.44
2017-10-22T12:28:59.303Z,38.35
2017-10-22T12:31:26.880Z,38.78
2017-10-22T12:33:54.618Z,39.53
2017-10-22T12:36:22.252Z,39.80
2017-10-22T12:38:49.810Z,39.55
2017-10-22T12:41:17.514Z,38.20
2017-10-22T12:43:45.025Z,37.71
2017-10-22T12:46:12.592Z,37.22
2017-10-22T12:48:40.202Z,36.56
2017-10-22T12:51:08.701Z,35.30
2017-10-22T12:53:36.312Z,34.88
2017-10-22T12:56:03.912Z,34.38
2017-10-22T12:58:31.545Z,34.40
2017-10-22T13:00:59.182Z,36.15
2017-10-22T13:03:26.824Z,37.53
2017-10-22T13:05:54.979Z,38.01
2017-10-22T13:08:22.840Z,38.50
2017-10-22T13:10:50.409Z,40.06
2017-10-22T13:13:18.039Z,40.76
2017-10-22T13:15:45.750Z,42.89
2017-10-22T13:18:13.304Z,47.81
2017-10-22T13:20:40.894Z,48.38
2017-10-22T13:23:09.017Z,48.22
2017-10-22T13:25:37.707Z,47.67
2017-10-22T13:28:08.450Z,43.90
2017-10-22T13:30:36.823Z,43.54
2017-10-22T13:33:04.406Z,45.20
2017-10-22T13:35:33.247Z,43.71
2017-10-22T13:38:02.440Z,43.91
2017-10-22T13:40:31.040Z,43.49
2017-10-22T13:42:58.881Z,43.96
2017-10-22T13:45:26.778Z,45.49
2017-10-22T13:47:54.604Z,46.96
2017-10-22T13:50:23.096Z,46.89
2017-10-22T13:52:51.049Z,46.13
2017-10-22T13:55:18.689Z,46.49
2017-10-22T13:57:47.180Z,46.67
2017-10-22T14:00:18.669Z,45.88
2017-10-22T14:02:48.874Z,45.46
2017-10-22T14:05:16.904Z,45.90
2017-10-22T14:07:44.792Z,47.93
2017-10-22T14:10:12.766Z,48.31
2017-10-22T14:12:41.038Z,48.41
2017-10-22T14:15:08.957Z,48.76
2017-10-22T14:17:36.504Z,47.99
2017-10-22T14:20:04.325Z,48.48
2017-10-22T14:22:31.969Z,49.40
2017-10-22T14:25:00.235Z,51.24
2017-10-22T14:27:30.038Z,50.26
2017-10-22T14:29:59.666Z,50.02
2017-10-22T14:32:28.315Z,50.35
2017-10-22T14:34:55.818Z,51.21
2017-10-22T14:37:23.395Z,52.63
2017-10-22T14:39:51.056Z,52.01
2017-10-22T14:42:18.594Z,51.63
2017-10-22T14:44:46.261Z,52.23
2017-10-22T14:47:13.810Z,54.23
2017-10-22T14:49:41.926Z,53.72
2017-10-22T14:52:09.501Z,54.54
2017-10-22T14:54:37.117Z,54.57
2017-10-22T14:57:04.689Z,56.30
2017-10-22T14:59:32.332Z,56.93
2017-10-22T15:01:59.840Z,57.91
2017-10-22T15:04:27.504Z,58.15
2017-10-22T15:06:55.313Z,57.77
2017-10-22T15:09:23.500Z,56.98
2017-10-22T15:11:51.914Z,60.24
2017-10-22T15:14:21.106Z,59.55
2017-10-22T15:16:49.228Z,60.67
2017-10-22T15:19:16.764Z,60.31
2017-10-22T15:21:44.497Z,61.78
2017-10-22T15:24:12.103Z,62.56
2017-10-22T15:26:39.776Z,61.02
2017-10-22T15:29:07.389Z,61.56
2017-10-22T15:31:34.891Z,60.96
2017-10-22T15:34:02.706Z,63.52
2017-10-22T15:36:30.342Z,61.54
2017-10-22T15:38:57.881Z,62.63
2017-10-22T15:41:25.416Z,60.85
2017-10-22T15:43:52.972Z,63.20
2017-10-22T15:46:21.455Z,65.18
2017-10-22T15:48:48.989Z,64.28
2017-10-22T15:51:16.719Z,64.49
2017-10-22T15:53:44.305Z,64.17
2017-10-22T15:56:11.859Z,64.76
2017-10-22T15:58:39.360Z,65.52
2017-10-22T16:01:06.915Z,65.13
2017-10-22T16:03:34.532Z,62.79
2017-10-22T16:06:02.062Z,62.50
2017-10-22T16:08:29.670Z,62.67
2017-10-22T16:10:57.171Z,61.89
2017-10-22T16:13:24.696Z,62.00
2017-10-22T16:15:52.208Z,62.92
2017-10-22T16:18:19.737Z,61.67
2017-10-22T16:20:47.393Z,60.59
2017-10-22T16:23:14.988Z,61.83
2017-10-22T16:25:42.521Z,63.11
2017-10-22T16:28:10.086Z,62.81
2017-10-22T16:30:37.648Z,62.98
2017-10-22T16:35:41.263Z,63.07
2017-10-22T16:38:12.551Z,61.78
2017-10-22T16:40:41.943Z,61.77
2017-10-22T16:43:11.147Z,61.64
2017-10-22T16:45:39.259Z,62.18
2017-10-22T16:48:07.796Z,63.48
2017-10-22T16:50:35.540Z,63.57
2017-10-22T16:53:03.751Z,62.86
2017-10-22T16:55:32.681Z,62.58
2017-10-22T16:58:02.069Z,62.75
2017-10-22T17:00:30.782Z,63.87
2017-10-22T17:02:58.403Z,64.41
2017-10-22T17:05:26.150Z,64.44
2017-10-22T17:07:54.584Z,64.95
2017-10-22T17:10:23.678Z,63.97
2017-10-22T17:12:51.487Z,64.59
2017-10-22T17:15:19.790Z,64.11
2017-10-22T17:17:48.537Z,66.13
2017-10-22T17:20:16.818Z,64.84
2017-10-22T17:22:48.381Z,64.48
2017-10-22T17:25:17.275Z,64.82
2017-10-22T17:27:47.668Z,64.18
2017-10-22T17:30:15.665Z,65.35
2017-10-22T17:32:43.345Z,64.85
2017-10-22T17:35:13.365Z,64.93
2017-10-22T17:37:41.258Z,64.31
2017-10-22T17:40:11.237Z,63.59
2017-10-22T17:42:39.989Z,63.06
2017-10-22T17:45:07.611Z,65.06
2017-10-22T17:47:36.086Z,65.25
2017-10-22T17:50:03.730Z,64.84
2017-10-22T17:52:32.020Z,65.83
2017-10-22T17:55:00.455Z,66.03
2017-10-22T17:57:28.015Z,65.85
2017-10-22T17:59:56.068Z,65.96
2017-10-22T18:02:23.849Z,66.13
2017-10-22T18:04:52.232Z,65.34
2017-10-22T18:07:19.849Z,65.80
2017-10-22T18:09:47.999Z,65.26
2017-10-22T18:12:15.601Z,66.51
2017-10-22T18:14:43.816Z,65.03
2017-10-22T18:17:12.482Z,65.74
2017-10-22T18:19:41.039Z,65.29
2017-10-22T18:22:08.705Z,64.72
2017-10-22T18:24:40.213Z,66.12
2017-10-22T18:27:09.014Z,65.49
2017-10-22T18:29:36.549Z,65.04
2017-10-22T18:32:05.650Z,65.06
2017-10-22T18:34:34.237Z,64.93
2017-10-22T18:37:02.057Z,66.55
2017-10-22T18:39:29.870Z,66.41
2017-10-22T18:41:57.544Z,65.68
2017-10-22T18:44:25.252Z,65.38
2017-10-22T18:46:53.901Z,64.97
2017-10-22T18:49:23.713Z,65.11
2017-10-22T18:51:51.324Z,65.31
2017-10-22T18:54:19.857Z,66.75
2017-10-22T18:56:48.148Z,65.86
2017-10-22T18:59:15.996Z,65.76
2017-10-22T19:01:43.609Z,66.63
2017-10-22T19:04:11.472Z,66.80
2017-10-22T19:06:39.839Z,66.00
2017-10-22T19:09:07.494Z,67.47
2017-10-22T19:11:35.158Z,66.69
2017-10-22T19:14:02.712Z,66.48
2017-10-22T19:16:30.619Z,65.89
2017-10-22T19:18:59.231Z,66.25
2017-10-22T19:21:27.015Z,67.57
2017-10-22T19:23:55.039Z,67.01
2017-10-22T19:26:24.573Z,67.27
2017-10-22T19:28:53.113Z,66.15
2017-10-22T19:31:20.832Z,66.45
2017-10-22T19:33:49.190Z,67.18
2017-10-22T19:36:16.776Z,66.94
2017-10-22T19:38:45.153Z,68.05
2017-10-22T19:41:12.713Z,69.03
2017-10-22T19:43:41.062Z,67.91
2017-10-22T19:46:08.890Z,67.29
2017-10-22T19:48:36.526Z,66.31
2017-10-22T19:51:05.033Z,65.89
2017-10-22T19:53:32.603Z,66.76
2017-10-22T19:56:00.192Z,66.21
2017-10-22T19:58:28.513Z,65.75
2017-10-22T20:00:56.208Z,66.94
2017-10-22T20:03:23.833Z,66.15
2017-10-22T20:05:51.472Z,66.15
2017-10-22T20:08:19.840Z,67.56
2017-10-22T20:10:47.766Z,68.25
2017-10-22T20:13:17.022Z,68.17
2017-10-22T20:15:44.744Z,68.46
2017-10-22T20:18:13.625Z,67.74
2017-10-22T20:20:41.420Z,67.91
2017-10-22T20:23:09.195Z,68.39
2017-10-22T20:25:37.864Z,69.31
2017-10-22T20:28:05.544Z,70.99
2017-10-22T20:30:33.465Z,70.95
2017-10-22T20:33:04.014Z,70.88
2017-10-22T20:35:33.527Z,70.36
2017-10-22T20:38:02.090Z,71.09
2017-10-22T20:40:29.664Z,70.60
2017-10-22T20:42:57.520Z,70.37
2017-10-22T20:45:27.149Z,70.43
2017-10-22T20:47:55.337Z,70.75
2017-10-22T20:50:25.141Z,70.63
2017-10-22T20:52:57.098Z,70.00
2017-10-22T20:55:24.758Z,69.99
2017-10-22T20:57:54.267Z,69.88
2017-10-22T21:00:21.922Z,71.11
2017-10-22T21:02:50.770Z,70.56
2017-10-22T21:05:20.223Z,70.71
2017-10-22T21:07:48.705Z,70.28
2017-10-22T21:10:16.871Z,69.63
2017-10-22T21:12:45.211Z,69.68
2017-10-22T21:15:12.771Z,69.82
2017-10-22T21:17:40.337Z,69.38
2017-10-22T21:20:08.324Z,69.90
2017-10-22T21:22:36.073Z,70.89
2017-10-22T21:25:03.643Z,71.28
2017-10-22T21:27:32.096Z,70.85
2017-10-22T21:30:00.289Z,71.01
2017-10-22T21:32:27.804Z,71.19
2017-10-22T21:34:55.441Z,72.11
2017-10-22T21:37:23.074Z,72.20
2017-10-22T21:39:52.971Z,72.68
2017-10-22T21:42:21.822Z,72.42
2017-10-22T21:44:50.601Z,72.76
2017-10-22T21:47:27.194Z,72.52
2017-10-22T21:49:54.816Z,72.26
2017-10-22T21:52:22.439Z,71.05
2017-10-22T21:54:49.961Z,71.61
2017-10-22T21:57:17.639Z,72.55
2017-10-22T21:59:45.333Z,73.78
2017-10-22T22:02:13.566Z,72.83
2017-10-22T22:04:42.269Z,72.91
2017-10-22T22:07:10.800Z,72.89
2017-10-22T22:09:42.663Z,72.18
2017-10-22T22:12:11.140Z,72.18
2017-10-22T22:14:40.591Z,71.42
2017-10-22T22:17:08.139Z,71.12
2017-10-22T22:19:36.071Z,71.62
2017-10-22T22:22:08.776Z,71.53
2017-10-22T22:24:37.876Z,71.44
2017-10-22T22:27:05.521Z,71.44
2017-10-22T22:29:34.204Z,71.85
2017-10-22T22:32:01.756Z,70.33
2017-10-22T22:34:29.381Z,71.27
2017-10-22T22:36:57.097Z,71.33
2017-10-22T22:39:26.142Z,71.10
2017-10-22T22:41:53.762Z,70.90
2017-10-22T22:44:21.455Z,71.26
2017-10-22T22:46:49.009Z,70.89
2017-10-22T22:49:18.520Z,70.19
2017-10-22T22:51:47.078Z,71.81
2017-10-22T22:54:16.212Z,72.26
2017-10-22T22:56:44.975Z,71.79
2017-10-22T22:59:13.419Z,71.98
2017-10-22T23:01:41.135Z,72.03
2017-10-22T23:04:10.941Z,70.61
2017-10-22T23:06:38.623Z,71.09
2017-10-22T23:09:07.430Z,71.05
2017-10-22T23:11:35.416Z,71.52
2017-10-22T23:14:03.151Z,71.81
2017-10-22T23:16:31.480Z,71.21
2017-10-22T23:19:00.421Z,71.41
2017-10-22T23:21:28.041Z,71.22
2017-10-22T23:23:55.758Z,71.62
2017-10-22T23:26:24.400Z,71.88
2017-10-22T23:28:51.977Z,71.93
2017-10-22T23:31:19.761Z,71.25
2017-10-22T23:33:48.472Z,70.81
2017-10-22T23:36:16.102Z,70.95
2017-10-22T23:38:44.443Z,71.20
2017-10-22T23:41:12.872Z,71.15
2017-10-22T23:43:40.426Z,70.78
2017-10-22T23:46:08.278Z,71.49
2017-10-22T23:48:36.671Z,71.30
2017-10-22T23:51:05.072Z,71.72
2017-10-22T23:53:33.704Z,72.14
2017-10-22T23:56:02.485Z,72.53
2017-10-22T23:58:31.303Z,71.67
